createdAt,value
2018-01-13T00:01:32.687Z,89.40
2018-01-13T00:31:38.422Z,89.00
2018-01-13T00:37:21.965Z,89.60
2018-01-13T00:42:40.114Z,88.80
2018-01-13T02:31:34.379Z,90.00
2018-01-13T02:53:36.832Z,90.00
2018-01-13T03:04:30.084Z,90.10
2018-01-13T03:33:53.875Z,90.10
2018-01-13T03:38:59.359Z,90.10
2018-01-13T04:00:49.859Z,90.10
2018-01-13T04:28:22.599Z,90.00
2018-01-13T04:34:10.361Z,90.10
2018-01-13T04:45:00.678Z,89.70
2018-01-13T05:07:03.840Z,90.20
2018-01-13T05:12:28.151Z,90.20
2018-01-13T05:23:20.207Z,90.20
2018-01-13T05:38:54.812Z,90.20
2018-01-13T05:44:18.246Z,90.20
2018-01-13T05:49:34.080Z,90.40
2018-01-13T06:21:44.962Z,90.30
2018-01-13T06:27:05.740Z,90.20
2018-01-13T06:32:29.622Z,90.40
2018-01-13T06:43:05.346Z,90.40
2018-01-13T06:54:20.968Z,90.30
2018-01-13T06:59:34.671Z,90.40
2018-01-13T07:04:51.197Z,90.50
2018-01-13T07:10:07.886Z,90.40
2018-01-13T07:15:15.564Z,90.40
2018-01-13T07:20:23.893Z,90.30
2018-01-13T07:25:57.516Z,90.40
2018-01-13T07:31:18.804Z,90.70
2018-01-13T07:48:10.243Z,90.50
2018-01-13T07:58:34.707Z,90.40
2018-01-13T08:04:08.426Z,90.50
2018-01-13T08:09:26.533Z,90.50
2018-01-13T08:20:07.757Z,90.50
2018-01-13T08:30:34.893Z,90.40
2018-01-13T08:41:38.576Z,90.50
2018-01-13T08:47:06.417Z,90.50
2018-01-13T08:52:19.014Z,90.50
2018-01-13T08:57:30.017Z,90.50
2018-01-13T09:02:37.075Z,90.60
2018-01-13T09:13:03.011Z,90.70
2018-01-13T09:18:09.005Z,90.70
2018-01-13T09:23:16.136Z,90.60
2018-01-13T09:28:25.992Z,90.70
2018-01-13T09:33:43.587Z,90.60
2018-01-13T09:38:59.399Z,90.60
2018-01-13T09:44:15.884Z,90.60
2018-01-13T09:49:27.603Z,90.80
2018-01-13T09:54:38.677Z,90.70
2018-01-13T09:59:45.752Z,90.60
2018-01-13T10:04:51.682Z,90.70
2018-01-13T10:10:02.562Z,90.60
2018-01-13T10:20:40.806Z,90.60
2018-01-13T10:37:11.325Z,90.90
2018-01-13T10:48:04.169Z,90.80
2018-01-13T11:20:34.320Z,91.40
2018-01-13T11:25:45.602Z,91.30
2018-01-13T11:30:59.762Z,91.40
2018-01-13T11:36:10.764Z,91.40
2018-01-13T11:41:18.519Z,91.40
2018-01-13T11:46:34.356Z,91.50
2018-01-13T11:56:59.111Z,91.30
2018-01-13T12:02:14.333Z,91.20
2018-01-13T12:07:24.210Z,91.20
2018-01-13T12:17:52.919Z,91.40
2018-01-13T12:23:09.972Z,91.30
2018-01-13T12:28:18.365Z,91.20
2018-01-13T12:33:31.260Z,91.10
2018-01-13T12:43:56.084Z,91.00
2018-01-13T12:49:02.891Z,91.10
2018-01-13T12:54:10.696Z,91.20
2018-01-13T12:59:26.168Z,91.10
2018-01-13T13:04:42.350Z,91.20
2018-01-13T13:15:44.648Z,91.10
2018-01-13T13:26:06.038Z,91.00
2018-01-13T13:31:16.189Z,90.70
2018-01-13T13:36:26.482Z,90.60
2018-01-13T13:41:55.865Z,90.20
2018-01-13T13:47:09.983Z,90.20
2018-01-13T13:57:55.091Z,89.30
2018-01-13T14:03:10.539Z,89.30
2018-01-13T14:08:36.080Z,89.60
2018-01-13T14:19:21.915Z,89.30
2018-01-13T14:29:55.258Z,88.80
2018-01-13T14:35:04.807Z,89.00
2018-01-13T14:40:11.930Z,89.40
2018-01-13T14:45:17.938Z,89.80
2018-01-13T14:50:23.150Z,89.50
2018-01-13T14:55:38.549Z,89.80
2018-01-13T15:00:43.078Z,89.70
2018-01-13T15:06:00.186Z,89.30
2018-01-13T15:16:41.910Z,89.10
2018-01-13T15:21:46.345Z,88.70
2018-01-13T15:37:58.012Z,88.00
2018-01-13T15:43:25.896Z,86.90
2018-01-13T16:10:45.522Z,85.70
2018-01-13T16:21:20.331Z,86.30
2018-01-13T16:31:58.823Z,86.20
2018-01-13T16:37:03.606Z,86.00
2018-01-13T16:42:06.977Z,86.40
2018-01-13T16:47:13.611Z,86.40
2018-01-13T16:52:18.920Z,85.80
2018-01-13T16:57:23.360Z,85.90
2018-01-13T17:02:33.140Z,85.50
2018-01-13T17:07:39.744Z,85.70
2018-01-13T17:12:44.282Z,85.60
2018-01-13T17:17:51.982Z,85.60
2018-01-13T17:22:56.304Z,85.60
2018-01-13T17:28:02.630Z,85.20
2018-01-13T17:33:07.770Z,85.30
2018-01-13T17:38:14.943Z,85.60
2018-01-13T17:43:23.637Z,85.40
2018-01-13T17:48:26.306Z,85.40
2018-01-13T17:53:32.352Z,85.10
2018-01-13T17:58:35.178Z,85.50
2018-01-13T18:03:38.223Z,84.40
2018-01-13T18:08:41.188Z,85.10
2018-01-13T18:13:44.220Z,84.70
2018-01-13T18:18:49.527Z,85.00
2018-01-13T18:23:52.422Z,85.10
2018-01-13T18:28:55.792Z,85.10
2018-01-13T18:34:04.330Z,85.20
2018-01-13T18:39:07.532Z,85.00
2018-01-13T18:44:12.396Z,84.90
2018-01-13T18:49:15.793Z,84.90
2018-01-13T18:54:19.646Z,84.70
2018-01-13T18:59:25.528Z,84.90
2018-01-13T19:04:34.579Z,85.10
2018-01-13T19:09:39.343Z,85.00
2018-01-13T19:14:42.868Z,84.90
2018-01-13T19:19:45.839Z,85.10
2018-01-13T19:24:48.771Z,85.00
2018-01-13T19:29:53.915Z,84.80
2018-01-13T19:35:01.184Z,85.30
2018-01-13T19:40:05.250Z,85.10
2018-01-13T19:45:10.023Z,84.90
2018-01-13T19:50:14.861Z,85.10
2018-01-13T19:55:21.184Z,85.00
2018-01-13T20:00:25.597Z,84.50
2018-01-13T20:05:31.546Z,84.50
2018-01-13T20:10:36.033Z,85.10
2018-01-13T20:15:40.251Z,84.80
2018-01-13T20:20:45.964Z,84.30
2018-01-13T20:25:49.076Z,84.30
2018-01-13T20:30:52.019Z,84.20
2018-01-13T20:35:55.285Z,83.70
2018-01-13T20:40:57.986Z,83.90
2018-01-13T20:46:01.842Z,84.20
2018-01-13T20:51:04.597Z,83.70
2018-01-13T20:56:08.534Z,83.90
2018-01-13T21:01:13.235Z,84.00
2018-01-13T21:06:17.202Z,84.20
2018-01-13T21:11:23.337Z,84.10
2018-01-13T21:16:26.369Z,84.10
2018-01-13T21:21:32.635Z,83.90
2018-01-13T21:26:38.005Z,84.00
2018-01-13T21:31:42.854Z,83.80
2018-01-13T21:36:46.890Z,83.60
2018-01-13T21:41:50.100Z,83.70
2018-01-13T21:46:55.113Z,84.70
2018-01-13T21:51:59.076Z,83.90
2018-01-13T21:57:03.564Z,83.80
2018-01-13T22:02:10.553Z,83.60
2018-01-13T22:07:15.216Z,84.00
2018-01-13T22:12:20.018Z,83.70
2018-01-13T22:17:22.902Z,83.80
2018-01-13T22:22:26.747Z,83.70
2018-01-13T22:27:31.042Z,83.80
2018-01-13T22:32:40.287Z,83.90
2018-01-13T22:37:48.582Z,83.90
2018-01-13T22:43:01.380Z,84.00
2018-01-13T22:48:04.947Z,84.00
2018-01-13T22:53:10.521Z,83.80
2018-01-13T22:58:14.760Z,83.80
2018-01-13T23:03:19.026Z,83.60
2018-01-13T23:08:25.105Z,83.70
2018-01-13T23:13:29.656Z,83.90
2018-01-13T23:18:35.789Z,83.60
2018-01-13T23:23:44.697Z,83.50
2018-01-13T23:28:50.976Z,83.50
2018-01-13T23:33:58.066Z,83.30
2018-01-13T23:39:00.949Z,83.30
2018-01-13T23:44:05.167Z,83.10
2018-01-13T23:49:08.734Z,83.30
2018-01-13T23:54:13.546Z,83.30
2018-01-13T23:59:16.975Z,83.00
